createdAt,value
2023-01-26T00:00:02.380Z,6.8
2023-01-26T00:02:03.064Z,6.8
2023-01-26T00:04:02.832Z,6.8
2023-01-26T00:06:05.099Z,6.8
2023-01-26T00:08:02.968Z,6.8
2023-01-26T00:10:02.344Z,6.8
2023-01-26T00:12:02.304Z,6.8
2023-01-26T00:14:03.391Z,6.8
2023-01-26T00:16:03.562Z,6.8
2023-01-26T00:18:03.371Z,6.8
2023-01-26T00:20:02.339Z,6.8
2023-01-26T00:22:02.317Z,6.8
2023-01-26T00:24:04.185Z,6.8
2023-01-26T00:26:05.881Z,6.8
2023-01-26T00:28:03.086Z,6.8
2023-01-26T00:30:03.526Z,6.8
2023-01-26T00:32:02.376Z,6.8
2023-01-26T00:34:02.350Z,6.8
2023-01-26T00:36:02.322Z,6.8
2023-01-26T00:38:02.709Z,6.8
2023-01-26T00:40:02.511Z,6.8
2023-01-26T00:42:10.298Z,6.7
2023-01-26T00:44:03.327Z,6.7
2023-01-26T00:46:02.821Z,6.7
2023-01-26T00:48:02.965Z,6.7
2023-01-26T00:50:02.767Z,6.7
2023-01-26T00:52:03.931Z,6.7
2023-01-26T00:54:02.335Z,6.7
2023-01-26T00:56:02.378Z,6.7
2023-01-26T00:58:04.897Z,6.7
2023-01-26T01:00:02.409Z,6.6
2023-01-26T01:02:02.686Z,6.6
2023-01-26T01:04:02.352Z,6.6
2023-01-26T01:06:02.370Z,6.6
2023-01-26T01:08:03.478Z,6.5
2023-01-26T01:10:02.497Z,6.5
2023-01-26T01:12:02.860Z,6.5
2023-01-26T01:14:03.596Z,6.4
2023-01-26T01:16:05.447Z,6.4
2023-01-26T01:18:02.288Z,6.4
2023-01-26T01:20:02.465Z,6.3
2023-01-26T01:22:03.114Z,6.3
2023-01-26T01:24:03.412Z,6.3
2023-01-26T01:26:03.056Z,6.2
2023-01-26T01:28:02.526Z,6.2
2023-01-26T01:30:07.168Z,6.2
2023-01-26T01:32:03.034Z,6.2
2023-01-26T01:34:03.050Z,6.1
2023-01-26T01:36:04.832Z,6.1
2023-01-26T01:38:03.256Z,6.1
2023-01-26T01:40:02.581Z,6.0
2023-01-26T01:42:02.306Z,6.0
2023-01-26T01:44:14.132Z,5.9
2023-01-26T01:46:06.362Z,5.9
2023-01-26T01:48:10.151Z,5.9
2023-01-26T01:50:04.572Z,5.8
2023-01-26T01:52:06.736Z,5.8
2023-01-26T01:54:06.352Z,5.8
2023-01-26T01:56:05.950Z,5.8
2023-01-26T01:58:04.225Z,5.7
2023-01-26T02:00:08.104Z,5.7
2023-01-26T02:02:03.655Z,5.7
2023-01-26T02:04:05.958Z,5.6
2023-01-26T02:06:08.608Z,5.6
2023-01-26T02:08:04.745Z,5.5
2023-01-26T02:10:13.378Z,5.4
2023-01-26T02:12:05.864Z,5.4
2023-01-26T02:14:08.526Z,5.4
2023-01-26T02:16:03.529Z,5.4
2023-01-26T02:18:05.425Z,5.3
2023-01-26T02:20:08.290Z,5.3
2023-01-26T02:22:11.423Z,5.3
2023-01-26T02:24:10.178Z,5.3
2023-01-26T02:26:07.221Z,5.2
2023-01-26T02:28:02.468Z,5.2
2023-01-26T02:30:05.870Z,5.2
2023-01-26T02:32:02.463Z,5.2
2023-01-26T02:34:02.422Z,5.1
2023-01-26T02:36:03.721Z,5.1
2023-01-26T02:38:02.767Z,5.2
2023-01-26T02:40:09.383Z,5.1
2023-01-26T02:42:11.904Z,5.1
2023-01-26T02:44:05.472Z,5.1
2023-01-26T02:46:02.522Z,5.1
2023-01-26T02:48:06.020Z,5.1
2023-01-26T02:50:02.583Z,5.1
2023-01-26T02:52:02.777Z,5.1
2023-01-26T02:54:02.301Z,5.1
2023-01-26T02:56:02.600Z,5.1
2023-01-26T02:58:04.828Z,5.1
2023-01-26T03:00:03.673Z,5.1
2023-01-26T03:02:03.619Z,5.1
2023-01-26T03:04:02.625Z,5.1
2023-01-26T03:06:02.291Z,5.1
2023-01-26T03:08:05.751Z,5.1
2023-01-26T03:10:02.381Z,5.1
2023-01-26T03:12:02.379Z,5.1
2023-01-26T03:14:02.706Z,5.1
2023-01-26T03:16:06.524Z,5.1
2023-01-26T03:18:13.553Z,5.1
2023-01-26T03:20:12.135Z,5.1
2023-01-26T03:22:11.799Z,5.1
2023-01-26T03:24:12.996Z,5.1
2023-01-26T03:26:11.975Z,5.1
2023-01-26T03:28:03.259Z,5.1
2023-01-26T03:30:02.277Z,5.1
2023-01-26T03:32:03.025Z,5.1
2023-01-26T03:34:02.365Z,5.1
2023-01-26T03:36:02.506Z,5.1
2023-01-26T03:38:02.512Z,5.1
2023-01-26T03:40:12.603Z,5.1
2023-01-26T03:42:11.967Z,5.1
2023-01-26T03:44:11.767Z,5.1
2023-01-26T03:46:13.451Z,5.1
2023-01-26T03:48:15.772Z,5.1
2023-01-26T03:50:12.377Z,5.1
2023-01-26T03:52:11.963Z,5.1
2023-01-26T03:54:12.285Z,5.1
2023-01-26T03:56:13.793Z,5.1
2023-01-26T03:58:02.935Z,5.0
2023-01-26T04:00:03.660Z,5.0
2023-01-26T04:02:12.133Z,4.9
2023-01-26T04:04:12.790Z,4.9
2023-01-26T04:06:16.110Z,4.9
2023-01-26T04:08:13.074Z,4.9
2023-01-26T04:10:02.310Z,4.9
2023-01-26T04:12:03.681Z,4.9
2023-01-26T04:14:12.434Z,4.9
2023-01-26T04:16:12.745Z,4.9
2023-01-26T04:18:16.513Z,4.9
2023-01-26T04:20:12.029Z,4.9
2023-01-26T04:22:02.275Z,4.9
2023-01-26T04:24:09.349Z,4.9
2023-01-26T04:26:02.515Z,4.8
2023-01-26T04:28:02.479Z,4.8
2023-01-26T04:30:03.851Z,4.8
2023-01-26T04:32:02.328Z,4.8
2023-01-26T04:34:04.399Z,4.9
2023-01-26T04:36:05.209Z,4.9
2023-01-26T04:38:03.053Z,4.8
2023-01-26T04:40:04.092Z,4.9
2023-01-26T04:42:02.596Z,4.9
2023-01-26T04:44:02.715Z,4.9
2023-01-26T04:46:05.207Z,4.9
2023-01-26T04:48:02.327Z,4.9
2023-01-26T04:50:03.184Z,4.9
2023-01-26T04:52:03.287Z,4.9
2023-01-26T04:54:02.314Z,4.9
2023-01-26T04:56:02.548Z,5.0
2023-01-26T04:58:03.653Z,4.9
2023-01-26T05:00:03.184Z,4.9
2023-01-26T05:02:02.655Z,5.0
2023-01-26T05:04:05.013Z,5.0
2023-01-26T05:06:02.292Z,5.0
2023-01-26T05:08:03.072Z,5.0
2023-01-26T05:10:02.961Z,5.0
2023-01-26T05:12:12.228Z,5.0
2023-01-26T05:14:03.318Z,5.0
2023-01-26T05:16:03.108Z,5.1
2023-01-26T05:18:03.692Z,5.0
2023-01-26T05:20:02.462Z,5.1
2023-01-26T05:22:02.959Z,5.1
2023-01-26T05:24:03.168Z,5.1
2023-01-26T05:26:02.613Z,5.1
2023-01-26T05:28:02.593Z,5.1
2023-01-26T05:30:02.755Z,5.1
2023-01-26T05:32:02.660Z,5.1
2023-01-26T05:34:02.358Z,5.1
2023-01-26T05:36:05.716Z,5.1
2023-01-26T05:38:02.805Z,5.1
2023-01-26T05:40:03.878Z,5.2
2023-01-26T05:42:02.319Z,5.2
2023-01-26T05:44:02.292Z,5.2
2023-01-26T05:46:03.271Z,5.2
2023-01-26T05:48:03.483Z,5.2
2023-01-26T05:50:02.497Z,5.2
2023-01-26T05:52:02.489Z,5.2
2023-01-26T05:54:02.870Z,5.2
2023-01-26T05:56:02.353Z,5.2
2023-01-26T05:58:02.362Z,5.2
2023-01-26T06:00:02.798Z,5.2
2023-01-26T06:02:02.905Z,5.2
2023-01-26T06:04:02.680Z,5.2
2023-01-26T06:06:02.926Z,5.3
2023-01-26T06:08:02.354Z,5.2
2023-01-26T06:10:02.378Z,5.3
2023-01-26T06:12:02.507Z,5.3
2023-01-26T06:14:02.725Z,5.2
2023-01-26T06:16:03.275Z,5.3
2023-01-26T06:18:02.371Z,5.3
2023-01-26T06:20:02.382Z,5.3
2023-01-26T06:22:02.341Z,5.3
2023-01-26T06:24:03.042Z,5.3
2023-01-26T06:26:03.131Z,5.2
2023-01-26T06:28:02.790Z,5.2
2023-01-26T06:30:02.556Z,5.2
2023-01-26T06:32:02.930Z,5.2
2023-01-26T06:34:02.318Z,5.2
2023-01-26T06:36:03.239Z,5.2
2023-01-26T06:38:02.667Z,5.2
2023-01-26T06:40:02.541Z,5.2
2023-01-26T06:42:02.927Z,5.2
2023-01-26T06:44:02.445Z,5.2
2023-01-26T06:46:04.843Z,5.2
2023-01-26T06:48:02.279Z,5.2
2023-01-26T06:50:03.116Z,5.1
2023-01-26T06:52:09.636Z,5.2
2023-01-26T06:54:02.269Z,5.1
2023-01-26T06:56:02.339Z,5.1
2023-01-26T06:58:03.111Z,5.1
2023-01-26T07:00:03.389Z,5.1
2023-01-26T07:02:02.695Z,5.1
2023-01-26T07:04:02.945Z,5.1
2023-01-26T07:06:02.306Z,5.1
2023-01-26T07:08:05.979Z,5.1
2023-01-26T07:10:03.331Z,5.1
2023-01-26T07:12:02.288Z,5.1
2023-01-26T07:14:02.622Z,5.1
2023-01-26T07:16:03.507Z,5.1
2023-01-26T07:18:02.912Z,5.0
2023-01-26T07:20:02.354Z,5.0
2023-01-26T07:22:03.104Z,5.0
2023-01-26T07:24:03.005Z,4.9
2023-01-26T07:26:02.570Z,4.9
2023-01-26T07:28:02.500Z,4.9
2023-01-26T07:30:02.354Z,4.9
2023-01-26T07:32:02.445Z,4.9
2023-01-26T07:34:02.866Z,4.9
2023-01-26T07:36:03.629Z,4.9
2023-01-26T07:38:05.188Z,4.9
2023-01-26T07:40:03.289Z,4.8
2023-01-26T07:42:02.284Z,4.8
2023-01-26T07:44:04.397Z,4.8
2023-01-26T07:46:02.412Z,4.8
2023-01-26T07:48:02.900Z,4.8
2023-01-26T07:50:02.524Z,4.8
2023-01-26T07:52:04.687Z,4.8
2023-01-26T07:54:02.287Z,4.8
2023-01-26T07:56:12.842Z,4.8
2023-01-26T07:58:02.303Z,4.8
2023-01-26T08:00:03.842Z,4.8
2023-01-26T08:02:02.876Z,4.8
2023-01-26T08:04:02.328Z,4.8
2023-01-26T08:06:02.344Z,4.8
2023-01-26T08:08:02.585Z,4.8
2023-01-26T08:10:02.304Z,4.8
2023-01-26T08:12:02.386Z,4.8
2023-01-26T08:14:02.589Z,4.8
2023-01-26T08:16:04.481Z,4.8
2023-01-26T08:18:04.059Z,4.8
2023-01-26T08:20:03.267Z,4.8
2023-01-26T08:22:02.317Z,4.8
2023-01-26T08:24:03.152Z,4.8
2023-01-26T08:26:04.987Z,4.8
2023-01-26T08:28:03.121Z,4.8
2023-01-26T08:30:02.363Z,4.8
2023-01-26T08:32:02.406Z,4.8
2023-01-26T08:34:02.552Z,4.8
2023-01-26T08:36:04.394Z,4.8
2023-01-26T08:38:03.982Z,4.8
2023-01-26T08:40:02.657Z,4.8
2023-01-26T08:42:02.308Z,4.8
2023-01-26T08:44:03.046Z,4.8
2023-01-26T08:46:03.204Z,4.8
2023-01-26T08:48:02.285Z,4.8
2023-01-26T08:50:02.727Z,4.8
2023-01-26T08:52:02.477Z,4.8
2023-01-26T08:54:02.431Z,4.8
2023-01-26T08:56:03.598Z,4.8
2023-01-26T08:58:03.284Z,4.8
2023-01-26T09:00:02.635Z,4.8
2023-01-26T09:02:03.374Z,4.8
2023-01-26T09:04:02.888Z,4.8
2023-01-26T09:06:04.291Z,4.8
2023-01-26T09:08:02.501Z,4.8
2023-01-26T09:10:02.291Z,4.8
2023-01-26T09:12:02.528Z,4.8
2023-01-26T09:14:02.570Z,4.8
2023-01-26T09:16:04.797Z,4.8
2023-01-26T09:18:02.882Z,4.8
2023-01-26T09:20:02.384Z,4.8
2023-01-26T09:22:02.347Z,4.8
2023-01-26T09:24:02.428Z,4.8
2023-01-26T09:26:03.693Z,4.8
2023-01-26T09:28:05.623Z,4.8
2023-01-26T09:30:03.641Z,4.8
2023-01-26T09:32:02.313Z,4.7
2023-01-26T09:34:03.084Z,4.7
2023-01-26T09:36:04.486Z,4.7
2023-01-26T09:38:02.525Z,4.7
2023-01-26T09:40:03.127Z,4.7
2023-01-26T09:42:17.009Z,4.7
2023-01-26T09:44:07.820Z,4.6
2023-01-26T09:46:14.437Z,4.6
2023-01-26T09:48:17.024Z,4.6
2023-01-26T09:50:11.797Z,4.6
2023-01-26T09:52:06.156Z,4.6
2023-01-26T09:54:06.443Z,4.6
2023-01-26T09:56:02.459Z,4.6
2023-01-26T09:58:05.742Z,4.6
2023-01-26T10:00:08.876Z,4.6
2023-01-26T10:02:15.822Z,4.6
2023-01-26T10:04:13.315Z,4.6
2023-01-26T10:06:13.352Z,4.6
2023-01-26T10:08:02.741Z,4.6
2023-01-26T10:10:05.189Z,4.6
2023-01-26T10:12:07.604Z,4.6
2023-01-26T10:14:10.851Z,4.6
2023-01-26T10:16:07.844Z,4.6
2023-01-26T10:18:07.051Z,4.6
2023-01-26T10:20:07.059Z,4.6
2023-01-26T10:22:11.444Z,4.5
2023-01-26T10:24:05.274Z,4.5
2023-01-26T10:26:12.151Z,4.5
2023-01-26T10:28:13.078Z,4.5
2023-01-26T10:30:02.387Z,4.4
2023-01-26T10:32:02.445Z,4.4
2023-01-26T10:34:11.037Z,4.5
2023-01-26T10:36:05.700Z,4.4
2023-01-26T10:38:02.600Z,4.5
2023-01-26T10:40:07.052Z,4.5
2023-01-26T10:42:03.861Z,4.6
2023-01-26T10:44:05.327Z,4.6
2023-01-26T10:46:04.564Z,4.6
2023-01-26T10:48:05.440Z,4.6
2023-01-26T10:50:20.847Z,4.6
2023-01-26T10:52:07.873Z,4.6
2023-01-26T10:54:18.504Z,4.5
2023-01-26T10:56:05.553Z,4.5
2023-01-26T10:58:02.396Z,4.5
2023-01-26T11:00:09.178Z,4.4
2023-01-26T11:02:13.559Z,4.5
2023-01-26T11:04:06.523Z,4.5
2023-01-26T11:06:07.839Z,4.6
2023-01-26T11:08:03.314Z,4.6
2023-01-26T11:10:21.465Z,4.6
2023-01-26T11:12:05.462Z,4.6
2023-01-26T11:14:13.686Z,4.5
2023-01-26T11:16:06.280Z,4.4
2023-01-26T11:18:10.675Z,4.4
2023-01-26T11:20:16.991Z,4.4
2023-01-26T11:22:07.160Z,4.4
2023-01-26T11:24:07.931Z,4.4
2023-01-26T11:26:17.084Z,4.4
2023-01-26T11:28:21.331Z,4.4
2023-01-26T11:30:16.103Z,4.4
2023-01-26T11:32:10.384Z,4.4
2023-01-26T11:34:15.080Z,4.3
2023-01-26T11:36:11.917Z,4.4
2023-01-26T11:38:18.789Z,4.4
2023-01-26T11:40:13.417Z,4.3
2023-01-26T11:42:15.067Z,4.4
2023-01-26T11:44:20.041Z,4.4
2023-01-26T11:46:18.328Z,4.4
2023-01-26T11:48:18.066Z,4.4
2023-01-26T11:50:18.178Z,4.4
2023-01-26T11:52:12.119Z,4.4
2023-01-26T11:54:17.136Z,4.4
2023-01-26T11:56:19.717Z,4.4
2023-01-26T11:58:20.805Z,4.4
2023-01-26T12:00:05.601Z,4.4
2023-01-26T12:02:15.455Z,4.4
2023-01-26T12:04:02.476Z,4.4
2023-01-26T12:06:06.474Z,4.4
2023-01-26T12:08:07.153Z,4.4
2023-01-26T12:10:05.286Z,4.3
2023-01-26T12:12:09.950Z,4.4
2023-01-26T12:14:12.236Z,4.4
2023-01-26T12:16:13.915Z,4.4
2023-01-26T12:18:10.430Z,4.4
2023-01-26T12:20:15.068Z,4.4
2023-01-26T12:22:13.320Z,4.4
2023-01-26T12:24:05.712Z,4.4
2023-01-26T12:26:08.055Z,4.4
2023-01-26T12:28:14.922Z,4.4
2023-01-26T12:30:08.937Z,4.4
2023-01-26T12:32:10.234Z,4.4
2023-01-26T12:34:02.999Z,4.4
2023-01-26T12:36:17.347Z,4.4
2023-01-26T12:38:17.851Z,4.3
2023-01-26T12:40:14.273Z,4.3
2023-01-26T12:42:17.612Z,4.4
2023-01-26T12:44:13.008Z,4.4
2023-01-26T12:46:05.406Z,4.4
2023-01-26T12:48:11.217Z,4.4
2023-01-26T12:50:09.854Z,4.4
2023-01-26T12:52:07.680Z,4.4
2023-01-26T12:54:08.178Z,4.4
2023-01-26T12:56:10.209Z,4.4
2023-01-26T12:58:05.221Z,4.4
2023-01-26T13:00:05.871Z,4.4
2023-01-26T13:02:10.626Z,4.4
2023-01-26T13:04:07.323Z,4.4
2023-01-26T13:06:20.174Z,4.4
2023-01-26T13:08:22.355Z,4.4
2023-01-26T13:10:21.661Z,4.3
2023-01-26T13:12:02.284Z,4.3
2023-01-26T13:14:02.886Z,4.3
2023-01-26T13:16:22.710Z,4.3
2023-01-26T13:18:04.000Z,4.3
2023-01-26T13:20:21.409Z,4.3
2023-01-26T13:22:03.314Z,4.4
2023-01-26T13:24:02.984Z,4.3
2023-01-26T13:26:17.651Z,4.3
2023-01-26T13:28:04.424Z,4.3
2023-01-26T13:30:02.719Z,4.3
2023-01-26T13:32:21.417Z,4.3
2023-01-26T13:34:08.388Z,4.3
2023-01-26T13:36:06.302Z,4.3
2023-01-26T13:38:11.910Z,4.3
2023-01-26T13:40:06.499Z,4.3
2023-01-26T13:42:03.895Z,4.3
2023-01-26T13:44:10.597Z,4.3
2023-01-26T13:46:15.110Z,4.3
2023-01-26T13:48:10.130Z,4.3
2023-01-26T13:50:12.591Z,4.3
2023-01-26T13:52:02.773Z,4.3
2023-01-26T13:54:05.126Z,4.3
2023-01-26T13:56:05.552Z,4.3
2023-01-26T13:58:12.688Z,4.3
2023-01-26T14:00:03.625Z,4.3
2023-01-26T14:02:04.132Z,4.3
2023-01-26T14:04:03.504Z,4.3
2023-01-26T14:06:08.901Z,4.3
2023-01-26T14:08:03.267Z,4.4
2023-01-26T14:10:03.337Z,4.3
2023-01-26T14:12:05.299Z,4.3
2023-01-26T14:14:03.751Z,4.3
2023-01-26T14:16:05.396Z,4.3
2023-01-26T14:18:05.333Z,4.3
2023-01-26T14:20:12.896Z,4.3
2023-01-26T14:22:03.357Z,4.3
2023-01-26T14:24:02.691Z,4.3
2023-01-26T14:26:05.042Z,4.3
2023-01-26T14:28:02.653Z,4.4
2023-01-26T14:30:08.527Z,4.4
2023-01-26T14:32:02.924Z,4.3
2023-01-26T14:34:08.352Z,4.3
2023-01-26T14:36:04.305Z,4.3
2023-01-26T14:38:13.873Z,4.3
2023-01-26T14:40:18.495Z,4.3
2023-01-26T14:42:03.336Z,4.3
2023-01-26T14:44:05.474Z,4.3
2023-01-26T14:46:07.570Z,4.3
2023-01-26T14:48:06.562Z,4.3
2023-01-26T14:50:10.313Z,4.3
2023-01-26T14:52:02.802Z,4.3
2023-01-26T14:54:10.851Z,4.3
2023-01-26T14:56:02.539Z,4.3
2023-01-26T14:58:12.937Z,4.3
2023-01-26T15:00:08.369Z,4.3
2023-01-26T15:02:14.020Z,4.3
2023-01-26T15:04:05.499Z,4.3
2023-01-26T15:06:18.135Z,4.3
2023-01-26T15:08:05.041Z,4.3
2023-01-26T15:10:13.124Z,4.3
2023-01-26T15:12:12.793Z,4.3
2023-01-26T15:14:02.623Z,4.3
2023-01-26T15:16:05.668Z,4.3
2023-01-26T15:18:05.973Z,4.3
2023-01-26T15:20:02.671Z,4.4
2023-01-26T15:22:02.338Z,4.3
2023-01-26T15:24:04.924Z,4.3
2023-01-26T15:26:08.919Z,4.3
2023-01-26T15:28:02.478Z,4.3
2023-01-26T15:30:04.512Z,4.2
2023-01-26T15:32:03.136Z,4.2
2023-01-26T15:34:03.054Z,4.2
2023-01-26T15:36:02.527Z,4.2
2023-01-26T15:38:05.262Z,4.2
2023-01-26T15:40:03.980Z,4.2
2023-01-26T15:42:13.240Z,4.2
2023-01-26T15:44:02.418Z,4.2
2023-01-26T15:46:02.596Z,4.2
2023-01-26T15:48:02.783Z,4.2
2023-01-26T15:50:02.632Z,4.2
2023-01-26T15:52:02.544Z,4.2
2023-01-26T15:54:02.296Z,4.2
2023-01-26T15:56:02.314Z,4.2
2023-01-26T15:58:02.496Z,4.2
2023-01-26T16:00:04.453Z,4.2
2023-01-26T16:02:02.646Z,4.2
2023-01-26T16:04:02.468Z,4.2
2023-01-26T16:06:02.278Z,4.2
2023-01-26T16:08:02.372Z,4.3
2023-01-26T16:10:02.596Z,4.2
2023-01-26T16:12:02.503Z,4.3
2023-01-26T16:14:04.281Z,4.3
2023-01-26T16:16:02.507Z,4.3
2023-01-26T16:18:02.548Z,4.3
2023-01-26T16:20:02.412Z,4.3
2023-01-26T16:22:02.562Z,4.3
2023-01-26T16:24:03.962Z,4.3
2023-01-26T16:26:03.112Z,4.3
2023-01-26T16:28:02.640Z,4.3
2023-01-26T16:30:02.305Z,4.3
2023-01-26T16:32:03.057Z,4.4
2023-01-26T16:34:02.655Z,4.4
2023-01-26T16:36:02.474Z,4.4
2023-01-26T16:38:03.826Z,4.4
2023-01-26T16:40:03.248Z,4.4
2023-01-26T16:42:02.354Z,4.4
2023-01-26T16:44:03.886Z,4.4
2023-01-26T16:46:02.327Z,4.4
2023-01-26T16:48:02.523Z,4.4
2023-01-26T16:50:02.563Z,4.4
2023-01-26T16:52:02.638Z,4.4
2023-01-26T16:54:03.148Z,4.5
2023-01-26T16:56:03.653Z,4.5
2023-01-26T16:58:02.285Z,4.5
2023-01-26T17:00:02.470Z,4.6
2023-01-26T17:02:04.581Z,4.5
2023-01-26T17:04:02.895Z,4.5
2023-01-26T17:06:02.278Z,4.5
2023-01-26T17:08:02.371Z,4.4
2023-01-26T17:10:02.309Z,4.4
2023-01-26T17:12:02.561Z,4.4
2023-01-26T17:14:03.281Z,4.5
2023-01-26T17:16:03.406Z,4.4
2023-01-26T17:18:02.556Z,4.4
2023-01-26T17:20:17.979Z,4.4
2023-01-26T17:22:03.298Z,4.5
2023-01-26T17:24:03.839Z,4.4
2023-01-26T17:26:03.311Z,4.4
2023-01-26T17:28:02.956Z,4.4
2023-01-26T17:30:04.207Z,4.4
2023-01-26T17:32:03.226Z,4.4
2023-01-26T17:34:02.521Z,4.4
2023-01-26T17:36:04.034Z,4.4
2023-01-26T17:38:02.888Z,4.4
2023-01-26T17:40:02.458Z,4.4
2023-01-26T17:42:03.087Z,4.4
2023-01-26T17:44:02.416Z,4.4
2023-01-26T17:46:04.788Z,4.4
2023-01-26T17:48:02.494Z,4.4
2023-01-26T17:50:02.345Z,4.3
2023-01-26T17:52:02.526Z,4.3
2023-01-26T17:54:02.820Z,4.3
2023-01-26T17:56:03.893Z,4.2
2023-01-26T17:58:02.498Z,4.2
2023-01-26T18:00:04.034Z,4.2
2023-01-26T18:02:02.537Z,4.2
2023-01-26T18:04:02.416Z,4.1
2023-01-26T18:06:03.147Z,4.1
2023-01-26T18:08:02.368Z,4.1
2023-01-26T18:10:02.562Z,4.2
2023-01-26T18:12:02.470Z,4.2
2023-01-26T18:14:02.941Z,4.2
2023-01-26T18:16:05.107Z,4.2
2023-01-26T18:18:02.395Z,4.2
2023-01-26T18:20:02.323Z,4.2
2023-01-26T18:22:03.051Z,4.3
2023-01-26T18:24:03.987Z,4.3
2023-01-26T18:26:04.630Z,4.3
2023-01-26T18:28:03.453Z,4.3
2023-01-26T18:30:02.574Z,4.3
2023-01-26T18:32:02.443Z,4.3
2023-01-26T18:34:04.642Z,4.3
2023-01-26T18:36:05.247Z,4.3
2023-01-26T18:38:03.695Z,4.3
2023-01-26T18:40:04.017Z,4.3
2023-01-26T18:42:02.381Z,4.3
2023-01-26T18:44:03.368Z,4.3
2023-01-26T18:46:03.669Z,4.4
2023-01-26T18:48:02.499Z,4.4
2023-01-26T18:50:02.507Z,4.5
2023-01-26T18:52:02.410Z,4.6
2023-01-26T18:54:04.426Z,4.6
2023-01-26T18:56:04.532Z,4.6
2023-01-26T18:58:02.628Z,4.6
2023-01-26T19:00:02.714Z,4.6
2023-01-26T19:02:02.832Z,4.6
2023-01-26T19:04:03.671Z,4.6
2023-01-26T19:06:04.009Z,4.6
2023-01-26T19:08:09.836Z,4.6
2023-01-26T19:10:04.392Z,4.6
2023-01-26T19:12:03.069Z,4.6
2023-01-26T19:14:04.020Z,4.6
2023-01-26T19:16:03.228Z,4.6
2023-01-26T19:18:03.793Z,4.6
2023-01-26T19:20:02.471Z,4.6
2023-01-26T19:22:03.231Z,4.6
2023-01-26T19:24:05.714Z,4.6
2023-01-26T19:26:08.704Z,4.6
2023-01-26T19:28:03.245Z,4.6
2023-01-26T19:30:02.486Z,4.6
2023-01-26T19:32:02.432Z,4.7
2023-01-26T19:34:06.126Z,4.7
2023-01-26T19:36:04.508Z,4.8
2023-01-26T19:38:02.465Z,4.8
2023-01-26T19:40:02.711Z,4.8
2023-01-26T19:42:02.900Z,4.8
2023-01-26T19:44:02.402Z,4.8
2023-01-26T19:46:03.108Z,4.8
2023-01-26T19:48:02.520Z,4.8
2023-01-26T19:50:02.374Z,4.8
2023-01-26T19:52:02.652Z,4.8
2023-01-26T19:54:02.293Z,4.8
2023-01-26T19:56:06.224Z,4.8
2023-01-26T19:58:02.922Z,4.8
2023-01-26T20:00:06.526Z,4.8
2023-01-26T20:02:02.427Z,4.8
2023-01-26T20:04:04.760Z,4.8
2023-01-26T20:06:03.916Z,4.8
2023-01-26T20:08:02.490Z,4.8
2023-01-26T20:10:02.303Z,4.8
2023-01-26T20:12:05.676Z,4.8
2023-01-26T20:14:05.876Z,4.8
2023-01-26T20:16:04.250Z,4.8
2023-01-26T20:18:03.716Z,4.8
2023-01-26T20:20:03.198Z,4.9
2023-01-26T20:22:03.297Z,4.9
2023-01-26T20:24:05.877Z,4.9
2023-01-26T20:26:03.627Z,4.9
2023-01-26T20:28:02.528Z,5.1
2023-01-26T20:30:03.615Z,5.1
2023-01-26T20:32:03.608Z,5.1
2023-01-26T20:34:02.708Z,5.1
2023-01-26T20:36:07.530Z,5.2
2023-01-26T20:38:03.343Z,5.3
2023-01-26T20:40:03.878Z,5.3
2023-01-26T20:42:02.299Z,5.3
2023-01-26T20:44:05.356Z,5.3
2023-01-26T20:46:06.014Z,5.4
2023-01-26T20:48:03.319Z,5.4
2023-01-26T20:50:02.577Z,5.4
2023-01-26T20:52:02.555Z,5.4
2023-01-26T20:54:04.234Z,5.5
2023-01-26T20:56:02.471Z,5.6
2023-01-26T20:58:06.721Z,5.6
2023-01-26T21:00:03.731Z,5.6
2023-01-26T21:02:02.726Z,5.6
2023-01-26T21:04:05.110Z,5.6
2023-01-26T21:06:03.978Z,5.6
2023-01-26T21:08:02.338Z,5.5
2023-01-26T21:10:02.327Z,5.4
2023-01-26T21:12:02.558Z,5.4
2023-01-26T21:14:03.454Z,5.4
2023-01-26T21:16:04.571Z,5.4
2023-01-26T21:18:02.292Z,5.4
2023-01-26T21:20:02.980Z,5.4
2023-01-26T21:22:02.313Z,5.4
2023-01-26T21:24:02.544Z,5.4
2023-01-26T21:26:05.649Z,5.4
2023-01-26T21:28:02.695Z,5.4
2023-01-26T21:30:03.088Z,5.5
2023-01-26T21:32:02.365Z,5.5
2023-01-26T21:34:02.430Z,5.5
2023-01-26T21:36:05.855Z,5.4
2023-01-26T21:38:02.413Z,5.4
2023-01-26T21:40:03.859Z,5.4
2023-01-26T21:42:02.473Z,5.4
2023-01-26T21:44:05.802Z,5.4
2023-01-26T21:46:02.473Z,5.4
2023-01-26T21:48:12.477Z,5.5
2023-01-26T21:50:03.345Z,5.5
2023-01-26T21:52:12.500Z,5.6
2023-01-26T21:54:02.384Z,5.6
2023-01-26T21:56:02.329Z,5.6
2023-01-26T21:58:11.761Z,5.6
2023-01-26T22:00:02.815Z,5.6
2023-01-26T22:02:02.479Z,5.6
2023-01-26T22:04:06.024Z,5.6
2023-01-26T22:06:03.865Z,5.6
2023-01-26T22:08:02.948Z,5.6
2023-01-26T22:10:02.380Z,5.6
2023-01-26T22:12:02.683Z,5.6
2023-01-26T22:14:02.763Z,5.6
2023-01-26T22:16:04.519Z,5.6
2023-01-26T22:18:02.411Z,5.6
2023-01-26T22:20:02.904Z,5.6
2023-01-26T22:22:03.062Z,5.6
2023-01-26T22:24:04.077Z,5.6
2023-01-26T22:26:06.084Z,5.6
2023-01-26T22:28:03.095Z,5.6
2023-01-26T22:30:02.363Z,5.6
2023-01-26T22:32:03.454Z,5.6
2023-01-26T22:34:03.232Z,5.6
2023-01-26T22:36:05.858Z,5.6
2023-01-26T22:38:02.468Z,5.6
2023-01-26T22:40:02.367Z,5.6
2023-01-26T22:42:02.901Z,5.6
2023-01-26T22:44:02.470Z,5.6
2023-01-26T22:46:03.638Z,5.6
2023-01-26T22:48:03.336Z,5.5
2023-01-26T22:50:02.361Z,5.6
2023-01-26T22:52:06.159Z,5.6
2023-01-26T22:54:02.786Z,5.6
2023-01-26T22:56:02.979Z,5.6
2023-01-26T22:58:02.302Z,5.6
2023-01-26T23:00:02.736Z,5.6
2023-01-26T23:02:02.333Z,5.6
2023-01-26T23:04:03.265Z,5.6
2023-01-26T23:06:04.177Z,5.6
2023-01-26T23:08:03.553Z,5.5
2023-01-26T23:10:02.312Z,5.4
2023-01-26T23:12:02.747Z,5.4
2023-01-26T23:14:02.358Z,5.4
2023-01-26T23:16:03.986Z,5.4
2023-01-26T23:18:02.303Z,5.3
2023-01-26T23:20:02.383Z,5.3
2023-01-26T23:22:02.373Z,5.3
2023-01-26T23:24:02.727Z,5.3
2023-01-26T23:26:03.281Z,5.3
2023-01-26T23:28:03.675Z,5.3
2023-01-26T23:30:03.461Z,5.3
2023-01-26T23:32:02.406Z,5.2
2023-01-26T23:34:03.294Z,5.2
2023-01-26T23:36:04.586Z,5.2
2023-01-26T23:38:02.587Z,5.2
2023-01-26T23:40:02.522Z,5.2
2023-01-26T23:42:02.297Z,5.2
2023-01-26T23:44:02.320Z,5.2
2023-01-26T23:46:04.431Z,5.3
2023-01-26T23:48:03.159Z,5.2
2023-01-26T23:50:02.899Z,5.3
2023-01-26T23:52:02.570Z,5.3
2023-01-26T23:54:02.287Z,5.3
2023-01-26T23:56:06.449Z,5.2
2023-01-26T23:58:02.864Z,5.2
